sensor_id;sensor_type;location;lat;lon;timestamp;P1;durP1;ratioP1;P2;durP2;ratioP2
14472;SDS011;7322;50.872;4.386;2022-11-24T00:02:36;5.87;;;1.90;;
14472;SDS011;7322;50.872;4.386;2022-11-24T00:07:38;3.60;;;1.80;;
14472;SDS011;7322;50.872;4.386;2022-11-24T00:10:07;4.97;;;1.80;;
14472;SDS011;7322;50.872;4.386;2022-11-24T00:12:42;4.27;;;2.03;;
14472;SDS011;7322;50.872;4.386;2022-11-24T00:15:14;3.50;;;1.90;;
14472;SDS011;7322;50.872;4.386;2022-11-24T00:17:48;4.07;;;1.70;;
14472;SDS011;7322;50.872;4.386;2022-11-24T00:20:17;5.20;;;1.73;;
14472;SDS011;7322;50.872;4.386;2022-11-24T00:22:59;5.30;;;2.20;;
14472;SDS011;7322;50.872;4.386;2022-11-24T00:25:36;3.77;;;1.70;;
14472;SDS011;7322;50.872;4.386;2022-11-24T00:28:11;4.30;;;1.80;;
14472;SDS011;7322;50.872;4.386;2022-11-24T00:30:50;4.60;;;1.83;;
14472;SDS011;7322;50.872;4.386;2022-11-24T00:33:17;4.43;;;1.90;;
14472;SDS011;7322;50.872;4.386;2022-11-24T00:35:52;5.33;;;1.70;;
14472;SDS011;7322;50.872;4.386;2022-11-24T00:38:37;4.13;;;1.80;;
14472;SDS011;7322;50.872;4.386;2022-11-24T00:46:29;4.03;;;1.73;;
14472;SDS011;7322;50.872;4.386;2022-11-24T00:49:04;6.33;;;1.80;;
14472;SDS011;7322;50.872;4.386;2022-11-24T00:57:53;4.80;;;1.80;;
14472;SDS011;7322;50.872;4.386;2022-11-24T01:00:30;3.33;;;1.60;;
14472;SDS011;7322;50.872;4.386;2022-11-24T01:11:25;3.77;;;1.87;;
14472;SDS011;7322;50.872;4.386;2022-11-24T01:14:08;6.17;;;1.73;;
14472;SDS011;7322;50.872;4.386;2022-11-24T01:16:34;4.23;;;1.70;;
14472;SDS011;7322;50.872;4.386;2022-11-24T01:19:21;3.97;;;1.87;;
14472;SDS011;7322;50.872;4.386;2022-11-24T01:27:51;4.30;;;2.20;;
14472;SDS011;7322;50.872;4.386;2022-11-24T01:30:30;5.73;;;1.83;;
14472;SDS011;7322;50.872;4.386;2022-11-24T01:35:40;4.33;;;1.90;;
14472;SDS011;7322;50.872;4.386;2022-11-24T01:49:52;5.00;;;1.73;;
14472;SDS011;7322;50.872;4.386;2022-11-24T01:52:34;4.83;;;1.90;;
14472;SDS011;7322;50.872;4.386;2022-11-24T02:01:10;5.30;;;1.70;;
14472;SDS011;7322;50.872;4.386;2022-11-24T02:03:46;3.43;;;1.70;;
14472;SDS011;7322;50.872;4.386;2022-11-24T02:06:28;4.73;;;2.00;;
14472;SDS011;7322;50.872;4.386;2022-11-24T02:09:10;3.83;;;1.63;;
14472;SDS011;7322;50.872;4.386;2022-11-24T02:11:56;6.80;;;2.20;;
14472;SDS011;7322;50.872;4.386;2022-11-24T02:17:14;4.13;;;2.07;;
14472;SDS011;7322;50.872;4.386;2022-11-24T02:19:47;5.93;;;1.90;;
14472;SDS011;7322;50.872;4.386;2022-11-24T02:22:21;3.63;;;1.93;;
14472;SDS011;7322;50.872;4.386;2022-11-24T02:24:58;3.60;;;1.60;;
14472;SDS011;7322;50.872;4.386;2022-11-24T02:39:09;3.47;;;1.57;;
14472;SDS011;7322;50.872;4.386;2022-11-24T02:44:44;4.93;;;1.93;;
14472;SDS011;7322;50.872;4.386;2022-11-24T02:53:02;4.50;;;2.00;;
14472;SDS011;7322;50.872;4.386;2022-11-24T02:55:37;5.17;;;2.13;;
14472;SDS011;7322;50.872;4.386;2022-11-24T02:58:11;5.70;;;2.20;;
14472;SDS011;7322;50.872;4.386;2022-11-24T03:06:23;5.70;;;2.23;;
14472;SDS011;7322;50.872;4.386;2022-11-24T03:14:53;3.73;;;1.70;;
14472;SDS011;7322;50.872;4.386;2022-11-24T03:17:20;3.60;;;1.77;;
14472;SDS011;7322;50.872;4.386;2022-11-24T03:23:10;3.60;;;1.93;;
14472;SDS011;7322;50.872;4.386;2022-11-24T03:25:45;4.17;;;1.60;;
14472;SDS011;7322;50.872;4.386;2022-11-24T03:28:28;4.53;;;1.90;;
14472;SDS011;7322;50.872;4.386;2022-11-24T03:40:09;5.50;;;1.80;;
14472;SDS011;7322;50.872;4.386;2022-11-24T03:46:04;3.83;;;2.00;;
14472;SDS011;7322;50.872;4.386;2022-11-24T03:48:36;4.37;;;1.80;;
14472;SDS011;7322;50.872;4.386;2022-11-24T03:51:05;5.03;;;1.80;;
14472;SDS011;7322;50.872;4.386;2022-11-24T03:53:32;8.57;;;2.10;;
14472;SDS011;7322;50.872;4.386;2022-11-24T03:56:15;3.90;;;1.90;;
14472;SDS011;7322;50.872;4.386;2022-11-24T04:01:12;4.87;;;1.97;;
14472;SDS011;7322;50.872;4.386;2022-11-24T04:06:26;5.87;;;1.80;;
14472;SDS011;7322;50.872;4.386;2022-11-24T04:09:01;3.37;;;1.60;;
14472;SDS011;7322;50.872;4.386;2022-11-24T04:11:42;5.13;;;1.90;;
14472;SDS011;7322;50.872;4.386;2022-11-24T04:14:34;2.90;;;1.80;;
14472;SDS011;7322;50.872;4.386;2022-11-24T04:17:03;4.80;;;1.73;;
14472;SDS011;7322;50.872;4.386;2022-11-24T04:19:43;3.43;;;1.67;;
14472;SDS011;7322;50.872;4.386;2022-11-24T04:25:17;5.77;;;1.90;;
14472;SDS011;7322;50.872;4.386;2022-11-24T04:30:26;4.27;;;1.70;;
14472;SDS011;7322;50.872;4.386;2022-11-24T04:33:01;3.43;;;1.67;;
14472;SDS011;7322;50.872;4.386;2022-11-24T04:35:29;4.87;;;1.77;;
14472;SDS011;7322;50.872;4.386;2022-11-24T04:37:56;4.17;;;1.70;;
14472;SDS011;7322;50.872;4.386;2022-11-24T04:40:38;6.23;;;1.97;;
14472;SDS011;7322;50.872;4.386;2022-11-24T04:43:14;4.77;;;1.70;;
14472;SDS011;7322;50.872;4.386;2022-11-24T04:48:36;3.73;;;1.53;;
14472;SDS011;7322;50.872;4.386;2022-11-24T04:57:13;4.47;;;1.70;;
14472;SDS011;7322;50.872;4.386;2022-11-24T04:59:45;3.73;;;1.60;;
14472;SDS011;7322;50.872;4.386;2022-11-24T05:02:12;3.17;;;1.30;;
14472;SDS011;7322;50.872;4.386;2022-11-24T05:04:46;3.83;;;1.60;;
14472;SDS011;7322;50.872;4.386;2022-11-24T05:07:15;4.00;;;1.80;;
14472;SDS011;7322;50.872;4.386;2022-11-24T05:12:59;3.70;;;1.70;;
14472;SDS011;7322;50.872;4.386;2022-11-24T05:18:28;3.70;;;1.40;;
14472;SDS011;7322;50.872;4.386;2022-11-24T05:20:57;3.23;;;1.30;;
14472;SDS011;7322;50.872;4.386;2022-11-24T05:29:32;5.87;;;1.50;;
14472;SDS011;7322;50.872;4.386;2022-11-24T05:32:12;4.37;;;1.50;;
14472;SDS011;7322;50.872;4.386;2022-11-24T05:34:48;2.80;;;1.37;;
14472;SDS011;7322;50.872;4.386;2022-11-24T05:37:23;3.53;;;1.40;;
14472;SDS011;7322;50.872;4.386;2022-11-24T05:42:46;2.60;;;1.20;;
14472;SDS011;7322;50.872;4.386;2022-11-24T05:45:19;2.90;;;1.23;;
14472;SDS011;7322;50.872;4.386;2022-11-24T05:50:57;4.57;;;1.30;;
14472;SDS011;7322;50.872;4.386;2022-11-24T05:56:20;3.13;;;1.23;;
14472;SDS011;7322;50.872;4.386;2022-11-24T06:04:36;2.80;;;1.43;;
14472;SDS011;7322;50.872;4.386;2022-11-24T06:15:11;5.33;;;1.67;;
14472;SDS011;7322;50.872;4.386;2022-11-24T06:17:41;3.97;;;1.53;;
14472;SDS011;7322;50.872;4.386;2022-11-24T06:20:10;3.50;;;1.40;;
14472;SDS011;7322;50.872;4.386;2022-11-24T06:22:37;5.17;;;1.80;;
14472;SDS011;7322;50.872;4.386;2022-11-24T06:25:12;9.27;;;1.83;;
14472;SDS011;7322;50.872;4.386;2022-11-24T06:27:54;7.20;;;2.00;;
14472;SDS011;7322;50.872;4.386;2022-11-24T06:30:24;5.90;;;1.80;;
14472;SDS011;7322;50.872;4.386;2022-11-24T06:32:54;8.90;;;2.33;;
14472;SDS011;7322;50.872;4.386;2022-11-24T06:35:22;7.63;;;1.83;;
14472;SDS011;7322;50.872;4.386;2022-11-24T06:37:49;6.77;;;2.10;;
14472;SDS011;7322;50.872;4.386;2022-11-24T06:40:24;9.53;;;1.60;;
14472;SDS011;7322;50.872;4.386;2022-11-24T06:45:57;5.97;;;1.90;;
14472;SDS011;7322;50.872;4.386;2022-11-24T06:48:38;8.63;;;2.00;;
14472;SDS011;7322;50.872;4.386;2022-11-24T06:51:07;5.60;;;1.63;;
14472;SDS011;7322;50.872;4.386;2022-11-24T06:53:39;5.23;;;1.60;;
14472;SDS011;7322;50.872;4.386;2022-11-24T06:56:17;5.90;;;1.90;;
14472;SDS011;7322;50.872;4.386;2022-11-24T07:01:40;7.13;;;1.83;;
14472;SDS011;7322;50.872;4.386;2022-11-24T07:06:58;6.23;;;1.70;;
14472;SDS011;7322;50.872;4.386;2022-11-24T07:09:36;4.50;;;1.60;;
14472;SDS011;7322;50.872;4.386;2022-11-24T07:12:05;6.97;;;2.00;;
14472;SDS011;7322;50.872;4.386;2022-11-24T07:14:33;5.27;;;1.67;;
14472;SDS011;7322;50.872;4.386;2022-11-24T07:17:02;6.33;;;1.73;;
14472;SDS011;7322;50.872;4.386;2022-11-24T07:19:29;4.70;;;1.90;;
14472;SDS011;7322;50.872;4.386;2022-11-24T07:22:04;6.77;;;2.10;;
14472;SDS011;7322;50.872;4.386;2022-11-24T07:30:21;5.30;;;1.87;;
14472;SDS011;7322;50.872;4.386;2022-11-24T07:38:31;3.67;;;1.53;;
14472;SDS011;7322;50.872;4.386;2022-11-24T07:47:00;5.50;;;1.87;;
14472;SDS011;7322;50.872;4.386;2022-11-24T07:49:28;4.33;;;1.57;;
14472;SDS011;7322;50.872;4.386;2022-11-24T07:52:02;6.67;;;1.70;;
14472;SDS011;7322;50.872;4.386;2022-11-24T07:54:34;4.37;;;1.50;;
14472;SDS011;7322;50.872;4.386;2022-11-24T07:57:07;7.30;;;2.00;;
14472;SDS011;7322;50.872;4.386;2022-11-24T08:08:27;6.00;;;1.67;;
14472;SDS011;7322;50.872;4.386;2022-11-24T08:11:15;6.00;;;1.93;;
14472;SDS011;7322;50.872;4.386;2022-11-24T08:13:50;5.70;;;1.77;;
14472;SDS011;7322;50.872;4.386;2022-11-24T08:16:24;4.67;;;1.73;;
14472;SDS011;7322;50.872;4.386;2022-11-24T08:18:58;3.77;;;1.63;;
14472;SDS011;7322;50.872;4.386;2022-11-24T08:21:25;5.23;;;1.67;;
14472;SDS011;7322;50.872;4.386;2022-11-24T08:27:17;9.13;;;1.60;;
14472;SDS011;7322;50.872;4.386;2022-11-24T08:29:56;5.53;;;2.00;;
14472;SDS011;7322;50.872;4.386;2022-11-24T08:32:25;5.53;;;1.67;;
14472;SDS011;7322;50.872;4.386;2022-11-24T08:34:52;5.80;;;1.67;;
14472;SDS011;7322;50.872;4.386;2022-11-24T08:40:11;6.47;;;1.83;;
14472;SDS011;7322;50.872;4.386;2022-11-24T08:42:44;7.73;;;1.97;;
14472;SDS011;7322;50.872;4.386;2022-11-24T08:45:12;7.70;;;2.00;;
14472;SDS011;7322;50.872;4.386;2022-11-24T08:47:39;8.07;;;2.17;;
14472;SDS011;7322;50.872;4.386;2022-11-24T08:50:06;6.93;;;1.67;;
14472;SDS011;7322;50.872;4.386;2022-11-24T08:59:03;11.73;;;3.40;;
14472;SDS011;7322;50.872;4.386;2022-11-24T09:01:48;7.37;;;3.43;;
14472;SDS011;7322;50.872;4.386;2022-11-24T09:04:22;13.67;;;3.47;;
14472;SDS011;7322;50.872;4.386;2022-11-24T09:13:07;9.17;;;3.20;;
14472;SDS011;7322;50.872;4.386;2022-11-24T09:15:36;12.87;;;3.10;;
14472;SDS011;7322;50.872;4.386;2022-11-24T09:20:35;9.03;;;3.40;;
14472;SDS011;7322;50.872;4.386;2022-11-24T09:23:07;7.17;;;3.20;;
14472;SDS011;7322;50.872;4.386;2022-11-24T09:25:34;7.03;;;3.03;;
14472;SDS011;7322;50.872;4.386;2022-11-24T09:28:01;8.97;;;3.80;;
14472;SDS011;7322;50.872;4.386;2022-11-24T09:30:30;12.47;;;4.13;;
14472;SDS011;7322;50.872;4.386;2022-11-24T09:33:02;13.97;;;5.00;;
14472;SDS011;7322;50.872;4.386;2022-11-24T09:35:29;15.07;;;5.50;;
14472;SDS011;7322;50.872;4.386;2022-11-24T09:37:56;14.37;;;6.47;;
14472;SDS011;7322;50.872;4.386;2022-11-24T09:40:24;19.73;;;7.20;;
14472;SDS011;7322;50.872;4.386;2022-11-24T09:45:44;26.93;;;10.40;;
14472;SDS011;7322;50.872;4.386;2022-11-24T09:48:22;29.53;;;12.03;;
14472;SDS011;7322;50.872;4.386;2022-11-24T09:53:53;38.27;;;15.37;;
14472;SDS011;7322;50.872;4.386;2022-11-24T09:56:30;44.50;;;18.00;;
14472;SDS011;7322;50.872;4.386;2022-11-24T09:59:12;49.33;;;18.13;;
14472;SDS011;7322;50.872;4.386;2022-11-24T10:01:53;53.53;;;19.67;;
14472;SDS011;7322;50.872;4.386;2022-11-24T10:04:24;52.70;;;21.27;;
14472;SDS011;7322;50.872;4.386;2022-11-24T10:06:55;47.77;;;22.60;;
14472;SDS011;7322;50.872;4.386;2022-11-24T10:09:33;52.80;;;22.27;;
14472;SDS011;7322;50.872;4.386;2022-11-24T10:12:14;66.13;;;23.80;;
14472;SDS011;7322;50.872;4.386;2022-11-24T10:14:59;65.50;;;25.33;;
14472;SDS011;7322;50.872;4.386;2022-11-24T10:20:41;70.63;;;27.03;;
14472;SDS011;7322;50.872;4.386;2022-11-24T10:23:22;64.63;;;25.70;;
14472;SDS011;7322;50.872;4.386;2022-11-24T10:26:02;65.20;;;26.93;;
14472;SDS011;7322;50.872;4.386;2022-11-24T10:28:34;71.27;;;27.27;;
14472;SDS011;7322;50.872;4.386;2022-11-24T10:31:12;72.03;;;26.97;;
14472;SDS011;7322;50.872;4.386;2022-11-24T10:33:48;65.00;;;28.07;;
14472;SDS011;7322;50.872;4.386;2022-11-24T10:36:17;78.20;;;27.93;;
14472;SDS011;7322;50.872;4.386;2022-11-24T10:38:53;63.47;;;26.43;;
14472;SDS011;7322;50.872;4.386;2022-11-24T10:41:35;71.50;;;28.43;;
14472;SDS011;7322;50.872;4.386;2022-11-24T10:44:10;64.57;;;27.77;;
14472;SDS011;7322;50.872;4.386;2022-11-24T10:46:44;63.77;;;25.40;;
14472;SDS011;7322;50.872;4.386;2022-11-24T10:49:13;68.83;;;27.07;;
14472;SDS011;7322;50.872;4.386;2022-11-24T10:52:04;69.47;;;28.27;;
14472;SDS011;7322;50.872;4.386;2022-11-24T10:54:49;63.47;;;27.50;;
14472;SDS011;7322;50.872;4.386;2022-11-24T10:57:28;61.53;;;27.20;;
14472;SDS011;7322;50.872;4.386;2022-11-24T10:59:57;60.23;;;28.10;;
14472;SDS011;7322;50.872;4.386;2022-11-24T11:02:38;60.87;;;27.20;;
14472;SDS011;7322;50.872;4.386;2022-11-24T11:05:23;59.73;;;27.00;;
14472;SDS011;7322;50.872;4.386;2022-11-24T11:08:16;60.13;;;26.97;;
14472;SDS011;7322;50.872;4.386;2022-11-24T11:13:50;60.63;;;25.73;;
14472;SDS011;7322;50.872;4.386;2022-11-24T11:16:23;46.70;;;23.90;;
14472;SDS011;7322;50.872;4.386;2022-11-24T11:18:55;50.43;;;23.73;;
14472;SDS011;7322;50.872;4.386;2022-11-24T11:21:27;48.87;;;22.27;;
14472;SDS011;7322;50.872;4.386;2022-11-24T11:24:13;50.17;;;24.17;;
14472;SDS011;7322;50.872;4.386;2022-11-24T11:26:42;50.37;;;22.80;;
14472;SDS011;7322;50.872;4.386;2022-11-24T11:29:14;47.07;;;21.40;;
14472;SDS011;7322;50.872;4.386;2022-11-24T11:31:57;47.90;;;21.23;;
14472;SDS011;7322;50.872;4.386;2022-11-24T11:34:29;44.73;;;21.60;;
14472;SDS011;7322;50.872;4.386;2022-11-24T11:37:18;44.40;;;21.43;;
14472;SDS011;7322;50.872;4.386;2022-11-24T11:39:52;49.63;;;21.07;;
14472;SDS011;7322;50.872;4.386;2022-11-24T11:54:13;41.30;;;18.80;;
14472;SDS011;7322;50.872;4.386;2022-11-24T11:56:59;37.37;;;18.07;;
14472;SDS011;7322;50.872;4.386;2022-11-24T11:59:41;40.33;;;17.90;;
14472;SDS011;7322;50.872;4.386;2022-11-24T12:05:42;38.83;;;18.17;;
14472;SDS011;7322;50.872;4.386;2022-11-24T12:08:21;36.20;;;17.37;;
14472;SDS011;7322;50.872;4.386;2022-11-24T12:11:08;34.40;;;17.37;;
14472;SDS011;7322;50.872;4.386;2022-11-24T12:14:00;33.63;;;17.07;;
14472;SDS011;7322;50.872;4.386;2022-11-24T12:16:55;33.47;;;16.97;;
14472;SDS011;7322;50.872;4.386;2022-11-24T12:19:35;37.20;;;16.37;;
14472;SDS011;7322;50.872;4.386;2022-11-24T12:22:22;33.37;;;16.37;;
14472;SDS011;7322;50.872;4.386;2022-11-24T12:25:10;30.70;;;15.83;;
14472;SDS011;7322;50.872;4.386;2022-11-24T12:27:50;32.50;;;15.83;;
14472;SDS011;7322;50.872;4.386;2022-11-24T12:30:37;30.47;;;15.87;;
14472;SDS011;7322;50.872;4.386;2022-11-24T12:36:06;36.60;;;16.37;;
14472;SDS011;7322;50.872;4.386;2022-11-24T12:38:44;30.40;;;15.20;;
14472;SDS011;7322;50.872;4.386;2022-11-24T12:41:26;29.87;;;14.57;;
14472;SDS011;7322;50.872;4.386;2022-11-24T12:44:23;29.97;;;14.67;;
14472;SDS011;7322;50.872;4.386;2022-11-24T12:49:45;31.87;;;15.20;;
14472;SDS011;7322;50.872;4.386;2022-11-24T12:52:32;25.80;;;13.50;;
14472;SDS011;7322;50.872;4.386;2022-11-24T12:55:12;31.57;;;14.60;;
14472;SDS011;7322;50.872;4.386;2022-11-24T12:57:50;27.37;;;14.93;;
14472;SDS011;7322;50.872;4.386;2022-11-24T13:03:34;28.93;;;14.43;;
14472;SDS011;7322;50.872;4.386;2022-11-24T13:06:11;30.50;;;15.10;;
14472;SDS011;7322;50.872;4.386;2022-11-24T13:08:42;25.53;;;13.80;;
14472;SDS011;7322;50.872;4.386;2022-11-24T13:11:34;27.47;;;14.10;;
14472;SDS011;7322;50.872;4.386;2022-11-24T13:14:10;26.43;;;13.50;;
14472;SDS011;7322;50.872;4.386;2022-11-24T13:16:57;26.80;;;14.47;;
14472;SDS011;7322;50.872;4.386;2022-11-24T13:19:36;28.70;;;14.40;;
14472;SDS011;7322;50.872;4.386;2022-11-24T13:25:16;24.87;;;13.23;;
14472;SDS011;7322;50.872;4.386;2022-11-24T13:27:48;27.50;;;13.73;;
14472;SDS011;7322;50.872;4.386;2022-11-24T13:33:29;25.23;;;12.50;;
14472;SDS011;7322;50.872;4.386;2022-11-24T13:39:02;23.17;;;12.17;;
14472;SDS011;7322;50.872;4.386;2022-11-24T14:00:19;24.70;;;12.77;;
14472;SDS011;7322;50.872;4.386;2022-11-24T14:02:49;23.83;;;12.37;;
14472;SDS011;7322;50.872;4.386;2022-11-24T14:05:20;27.30;;;15.17;;
14472;SDS011;7322;50.872;4.386;2022-11-24T14:07:53;40.87;;;19.70;;
14472;SDS011;7322;50.872;4.386;2022-11-24T14:10:22;42.57;;;21.57;;
14472;SDS011;7322;50.872;4.386;2022-11-24T14:18:43;42.13;;;20.20;;
14472;SDS011;7322;50.872;4.386;2022-11-24T14:21:23;43.87;;;19.50;;
14472;SDS011;7322;50.872;4.386;2022-11-24T14:23:53;41.30;;;20.43;;
14472;SDS011;7322;50.872;4.386;2022-11-24T14:26:25;45.57;;;18.83;;
14472;SDS011;7322;50.872;4.386;2022-11-24T14:31:59;43.30;;;18.13;;
14472;SDS011;7322;50.872;4.386;2022-11-24T14:34:31;42.30;;;17.67;;
14472;SDS011;7322;50.872;4.386;2022-11-24T14:37:02;43.07;;;18.03;;
14472;SDS011;7322;50.872;4.386;2022-11-24T14:39:31;48.97;;;16.87;;
14472;SDS011;7322;50.872;4.386;2022-11-24T14:42:16;35.40;;;17.03;;
14472;SDS011;7322;50.872;4.386;2022-11-24T14:44:57;38.27;;;16.47;;
14472;SDS011;7322;50.872;4.386;2022-11-24T14:50:31;35.17;;;15.73;;
14472;SDS011;7322;50.872;4.386;2022-11-24T14:53:00;32.07;;;16.27;;
14472;SDS011;7322;50.872;4.386;2022-11-24T14:55:27;34.70;;;16.43;;
14472;SDS011;7322;50.872;4.386;2022-11-24T14:57:56;32.10;;;15.97;;
14472;SDS011;7322;50.872;4.386;2022-11-24T15:03:11;37.27;;;16.60;;
14472;SDS011;7322;50.872;4.386;2022-11-24T15:05:52;31.30;;;15.20;;
14472;SDS011;7322;50.872;4.386;2022-11-24T15:08:21;31.10;;;15.57;;
14472;SDS011;7322;50.872;4.386;2022-11-24T15:10:53;31.77;;;15.67;;
14472;SDS011;7322;50.872;4.386;2022-11-24T15:13:23;31.10;;;14.88;;
14472;SDS011;7322;50.872;4.386;2022-11-24T15:15:52;28.77;;;14.60;;
14472;SDS011;7322;50.872;4.386;2022-11-24T15:30:07;25.53;;;13.57;;
14472;SDS011;7322;50.872;4.386;2022-11-24T15:32:46;27.00;;;13.83;;
14472;SDS011;7322;50.872;4.386;2022-11-24T15:35:17;30.30;;;13.93;;
14472;SDS011;7322;50.872;4.386;2022-11-24T15:37:57;29.97;;;14.30;;
14472;SDS011;7322;50.872;4.386;2022-11-24T15:40:24;28.03;;;13.13;;
14472;SDS011;7322;50.872;4.386;2022-11-24T15:42:54;26.93;;;12.97;;
14472;SDS011;7322;50.872;4.386;2022-11-24T15:45:27;27.87;;;13.57;;
14472;SDS011;7322;50.872;4.386;2022-11-24T15:48:00;28.27;;;13.80;;
14472;SDS011;7322;50.872;4.386;2022-11-24T15:50:40;24.90;;;13.00;;
14472;SDS011;7322;50.872;4.386;2022-11-24T15:53:08;25.13;;;12.40;;
14472;SDS011;7322;50.872;4.386;2022-11-24T15:55:43;25.50;;;12.93;;
14472;SDS011;7322;50.872;4.386;2022-11-24T15:58:24;23.10;;;12.80;;
14472;SDS011;7322;50.872;4.386;2022-11-24T16:00:51;23.20;;;12.10;;
14472;SDS011;7322;50.872;4.386;2022-11-24T16:03:21;19.97;;;10.03;;
14472;SDS011;7322;50.872;4.386;2022-11-24T16:08:42;22.87;;;9.20;;
14472;SDS011;7322;50.872;4.386;2022-11-24T16:11:21;33.43;;;10.17;;
14472;SDS011;7322;50.872;4.386;2022-11-24T16:16:24;26.03;;;9.63;;
14472;SDS011;7322;50.872;4.386;2022-11-24T16:18:51;26.17;;;9.40;;
14472;SDS011;7322;50.872;4.386;2022-11-24T16:21:19;22.63;;;9.80;;
14472;SDS011;7322;50.872;4.386;2022-11-24T16:23:48;28.53;;;9.83;;
14472;SDS011;7322;50.872;4.386;2022-11-24T16:26:15;25.07;;;9.60;;
14472;SDS011;7322;50.872;4.386;2022-11-24T16:28:43;21.80;;;9.47;;
14472;SDS011;7322;50.872;4.386;2022-11-24T16:31:10;23.83;;;9.67;;
14472;SDS011;7322;50.872;4.386;2022-11-24T16:33:39;20.30;;;8.57;;
14472;SDS011;7322;50.872;4.386;2022-11-24T16:36:08;19.07;;;8.17;;
14472;SDS011;7322;50.872;4.386;2022-11-24T16:38:36;18.83;;;8.57;;
14472;SDS011;7322;50.872;4.386;2022-11-24T16:41:03;22.90;;;9.17;;
14472;SDS011;7322;50.872;4.386;2022-11-24T16:43:31;21.77;;;9.10;;
14472;SDS011;7322;50.872;4.386;2022-11-24T16:45:59;18.87;;;8.63;;
14472;SDS011;7322;50.872;4.386;2022-11-24T16:48:41;17.03;;;8.00;;
14472;SDS011;7322;50.872;4.386;2022-11-24T16:51:09;18.97;;;8.80;;
14472;SDS011;7322;50.872;4.386;2022-11-24T16:53:41;18.43;;;8.87;;
14472;SDS011;7322;50.872;4.386;2022-11-24T16:56:08;17.27;;;7.97;;
14472;SDS011;7322;50.872;4.386;2022-11-24T16:58:52;18.63;;;8.03;;
14472;SDS011;7322;50.872;4.386;2022-11-24T17:04:10;16.87;;;7.63;;
14472;SDS011;7322;50.872;4.386;2022-11-24T17:06:37;21.40;;;8.83;;
14472;SDS011;7322;50.872;4.386;2022-11-24T17:09:06;21.83;;;8.70;;
14472;SDS011;7322;50.872;4.386;2022-11-24T17:11:33;18.00;;;7.23;;
14472;SDS011;7322;50.872;4.386;2022-11-24T17:14:02;17.80;;;8.07;;
14472;SDS011;7322;50.872;4.386;2022-11-24T17:16:30;18.67;;;7.50;;
14472;SDS011;7322;50.872;4.386;2022-11-24T17:18:57;17.67;;;7.80;;
14472;SDS011;7322;50.872;4.386;2022-11-24T17:21:25;21.33;;;8.40;;
14472;SDS011;7322;50.872;4.386;2022-11-24T17:23:52;15.57;;;6.90;;
14472;SDS011;7322;50.872;4.386;2022-11-24T17:26:28;13.07;;;6.20;;
14472;SDS011;7322;50.872;4.386;2022-11-24T17:28:56;15.53;;;6.67;;
14472;SDS011;7322;50.872;4.386;2022-11-24T17:31:24;17.07;;;7.43;;
14472;SDS011;7322;50.872;4.386;2022-11-24T17:33:52;13.27;;;6.70;;
14472;SDS011;7322;50.872;4.386;2022-11-24T17:36:21;16.97;;;6.87;;
14472;SDS011;7322;50.872;4.386;2022-11-24T17:38:48;12.37;;;6.33;;
14472;SDS011;7322;50.872;4.386;2022-11-24T17:41:15;16.57;;;7.30;;
14472;SDS011;7322;50.872;4.386;2022-11-24T17:43:44;13.83;;;6.60;;
14472;SDS011;7322;50.872;4.386;2022-11-24T17:46:20;16.90;;;6.83;;
14472;SDS011;7322;50.872;4.386;2022-11-24T17:48:47;15.43;;;6.53;;
14472;SDS011;7322;50.872;4.386;2022-11-24T17:51:15;13.00;;;6.50;;
14472;SDS011;7322;50.872;4.386;2022-11-24T17:53:44;13.30;;;6.87;;
14472;SDS011;7322;50.872;4.386;2022-11-24T17:56:13;17.70;;;6.93;;
14472;SDS011;7322;50.872;4.386;2022-11-24T17:58:44;13.87;;;6.67;;
14472;SDS011;7322;50.872;4.386;2022-11-24T18:01:11;13.80;;;6.37;;
14472;SDS011;7322;50.872;4.386;2022-11-24T18:03:40;13.80;;;6.50;;
14472;SDS011;7322;50.872;4.386;2022-11-24T18:06:07;12.77;;;6.47;;
14472;SDS011;7322;50.872;4.386;2022-11-24T18:08:36;11.83;;;6.73;;
14472;SDS011;7322;50.872;4.386;2022-11-24T18:11:04;15.30;;;6.97;;
14472;SDS011;7322;50.872;4.386;2022-11-24T18:13:38;13.17;;;6.80;;
14472;SDS011;7322;50.872;4.386;2022-11-24T18:16:07;13.70;;;7.03;;
14472;SDS011;7322;50.872;4.386;2022-11-24T18:18:43;12.20;;;6.43;;
14472;SDS011;7322;50.872;4.386;2022-11-24T18:23:43;13.93;;;6.40;;
14472;SDS011;7322;50.872;4.386;2022-11-24T18:26:11;14.57;;;6.43;;
14472;SDS011;7322;50.872;4.386;2022-11-24T18:28:40;13.23;;;6.50;;
14472;SDS011;7322;50.872;4.386;2022-11-24T18:31:09;13.93;;;7.13;;
14472;SDS011;7322;50.872;4.386;2022-11-24T18:33:37;11.90;;;6.63;;
14472;SDS011;7322;50.872;4.386;2022-11-24T18:36:08;10.93;;;6.43;;
14472;SDS011;7322;50.872;4.386;2022-11-24T18:38:38;16.17;;;7.13;;
14472;SDS011;7322;50.872;4.386;2022-11-24T18:41:05;11.83;;;6.97;;
14472;SDS011;7322;50.872;4.386;2022-11-24T18:43:33;11.93;;;6.50;;
14472;SDS011;7322;50.872;4.386;2022-11-24T18:46:02;14.83;;;6.67;;
14472;SDS011;7322;50.872;4.386;2022-11-24T18:48:31;13.07;;;7.07;;
14472;SDS011;7322;50.872;4.386;2022-11-24T18:50:58;13.33;;;7.37;;
14472;SDS011;7322;50.872;4.386;2022-11-24T18:53:26;13.60;;;7.13;;
14472;SDS011;7322;50.872;4.386;2022-11-24T18:55:54;11.63;;;7.30;;
14472;SDS011;7322;50.872;4.386;2022-11-24T18:58:22;11.30;;;6.43;;
14472;SDS011;7322;50.872;4.386;2022-11-24T19:00:51;12.30;;;7.03;;
14472;SDS011;7322;50.872;4.386;2022-11-24T19:03:18;12.17;;;7.47;;
14472;SDS011;7322;50.872;4.386;2022-11-24T19:05:47;12.33;;;6.97;;
14472;SDS011;7322;50.872;4.386;2022-11-24T19:08:14;11.23;;;6.83;;
14472;SDS011;7322;50.872;4.386;2022-11-24T19:10:41;11.70;;;7.23;;
14472;SDS011;7322;50.872;4.386;2022-11-24T19:13:09;12.70;;;7.67;;
14472;SDS011;7322;50.872;4.386;2022-11-24T19:15:38;11.20;;;6.73;;
14472;SDS011;7322;50.872;4.386;2022-11-24T19:18:07;13.17;;;7.47;;
14472;SDS011;7322;50.872;4.386;2022-11-24T19:20:34;13.10;;;7.30;;
14472;SDS011;7322;50.872;4.386;2022-11-24T19:23:02;12.47;;;7.47;;
14472;SDS011;7322;50.872;4.386;2022-11-24T19:25:30;11.97;;;7.00;;
14472;SDS011;7322;50.872;4.386;2022-11-24T19:27:58;13.53;;;7.97;;
14472;SDS011;7322;50.872;4.386;2022-11-24T19:30:25;13.30;;;7.97;;
14472;SDS011;7322;50.872;4.386;2022-11-24T19:32:54;12.53;;;7.90;;
14472;SDS011;7322;50.872;4.386;2022-11-24T19:35:21;13.30;;;7.70;;
14472;SDS011;7322;50.872;4.386;2022-11-24T19:37:48;13.17;;;7.83;;
14472;SDS011;7322;50.872;4.386;2022-11-24T19:40:16;16.43;;;9.63;;
14472;SDS011;7322;50.872;4.386;2022-11-24T19:42:44;12.37;;;8.07;;
14472;SDS011;7322;50.872;4.386;2022-11-24T19:45:12;13.43;;;8.50;;
14472;SDS011;7322;50.872;4.386;2022-11-24T19:47:38;14.93;;;9.60;;
14472;SDS011;7322;50.872;4.386;2022-11-24T19:50:06;14.23;;;9.00;;
14472;SDS011;7322;50.872;4.386;2022-11-24T19:52:34;13.23;;;8.80;;
14472;SDS011;7322;50.872;4.386;2022-11-24T19:55:01;14.30;;;8.83;;
14472;SDS011;7322;50.872;4.386;2022-11-24T19:57:30;14.20;;;8.70;;
14472;SDS011;7322;50.872;4.386;2022-11-24T19:59:57;12.73;;;8.00;;
14472;SDS011;7322;50.872;4.386;2022-11-24T20:02:25;14.03;;;8.70;;
14472;SDS011;7322;50.872;4.386;2022-11-24T20:04:53;16.60;;;8.83;;
14472;SDS011;7322;50.872;4.386;2022-11-24T20:07:20;14.83;;;11.53;;
14472;SDS011;7322;50.872;4.386;2022-11-24T20:09:47;15.23;;;10.70;;
14472;SDS011;7322;50.872;4.386;2022-11-24T20:12:14;16.17;;;11.30;;
14472;SDS011;7322;50.872;4.386;2022-11-24T20:14:42;17.37;;;10.03;;
14472;SDS011;7322;50.872;4.386;2022-11-24T20:17:09;13.80;;;9.63;;
14472;SDS011;7322;50.872;4.386;2022-11-24T20:19:38;16.60;;;10.23;;
14472;SDS011;7322;50.872;4.386;2022-11-24T20:22:04;14.80;;;10.43;;
14472;SDS011;7322;50.872;4.386;2022-11-24T20:24:31;13.03;;;9.40;;
14472;SDS011;7322;50.872;4.386;2022-11-24T20:26:58;14.97;;;9.73;;
14472;SDS011;7322;50.872;4.386;2022-11-24T20:29:27;12.10;;;8.87;;
14472;SDS011;7322;50.872;4.386;2022-11-24T20:31:57;13.93;;;9.87;;
14472;SDS011;7322;50.872;4.386;2022-11-24T20:34:25;13.83;;;9.97;;